sensor_id;sensor_type;location;lat;lon;timestamp;pressure;altitude;pressure_sealevel;temperature;humidity
70127;BME280;57491;42.694;23.314;2023-02-22T00:01:41;95085.97;;;11.51;38.87
70127;BME280;57491;42.694;23.314;2023-02-22T00:04:15;95082.72;;;11.49;39.74
70127;BME280;57491;42.694;23.314;2023-02-22T00:06:46;95091.16;;;11.51;41.29
70127;BME280;57491;42.694;23.314;2023-02-22T00:09:14;95080.03;;;11.57;38.90
70127;BME280;57491;42.694;23.314;2023-02-22T00:11:46;95079.38;;;11.55;39.09
70127;BME280;57491;42.694;23.314;2023-02-22T00:14:13;95072.31;;;11.49;41.26
70127;BME280;57491;42.694;23.314;2023-02-22T00:16:40;95080.47;;;11.60;41.42
70127;BME280;57491;42.694;23.314;2023-02-22T00:19:07;95085.03;;;11.58;40.88
70127;BME280;57491;42.694;23.314;2023-02-22T00:21:35;95089.25;;;11.59;41.02
70127;BME280;57491;42.694;23.314;2023-02-22T00:24:03;95088.00;;;11.55;39.94
70127;BME280;57491;42.694;23.314;2023-02-22T00:26:49;95082.00;;;11.55;39.93
70127;BME280;57491;42.694;23.314;2023-02-22T00:29:17;95078.31;;;11.49;37.91
70127;BME280;57491;42.694;23.314;2023-02-22T00:31:44;95087.28;;;11.26;38.68
70127;BME280;57491;42.694;23.314;2023-02-22T00:34:12;95080.16;;;10.98;39.19
70127;BME280;57491;42.694;23.314;2023-02-22T00:36:44;95080.03;;;10.77;39.59
70127;BME280;57491;42.694;23.314;2023-02-22T00:39:11;95078.63;;;10.60;39.97
70127;BME280;57491;42.694;23.314;2023-02-22T00:41:38;95073.84;;;10.63;40.07
70127;BME280;57491;42.694;23.314;2023-02-22T00:44:06;95081.41;;;10.73;40.99
70127;BME280;57491;42.694;23.314;2023-02-22T00:46:33;95069.00;;;10.90;41.87
70127;BME280;57491;42.694;23.314;2023-02-22T00:49:00;95074.03;;;10.91;39.61
70127;BME280;57491;42.694;23.314;2023-02-22T00:51:28;95071.38;;;10.85;41.13
70127;BME280;57491;42.694;23.314;2023-02-22T00:53:55;95066.88;;;10.93;40.66
70127;BME280;57491;42.694;23.314;2023-02-22T00:56:22;95066.13;;;10.99;40.29
70127;BME280;57491;42.694;23.314;2023-02-22T00:58:49;95053.75;;;11.01;41.85
70127;BME280;57491;42.694;23.314;2023-02-22T01:01:17;95062.25;;;11.10;42.09
70127;BME280;57491;42.694;23.314;2023-02-22T01:03:45;95059.56;;;11.18;42.63
70127;BME280;57491;42.694;23.314;2023-02-22T01:06:12;95052.50;;;11.12;39.85
70127;BME280;57491;42.694;23.314;2023-02-22T01:08:43;95045.13;;;11.15;41.98
70127;BME280;57491;42.694;23.314;2023-02-22T01:11:10;95056.06;;;11.26;41.82
70127;BME280;57491;42.694;23.314;2023-02-22T01:13:37;95049.03;;;11.26;41.50
70127;BME280;57491;42.694;23.314;2023-02-22T01:16:05;95051.63;;;11.26;41.01
70127;BME280;57491;42.694;23.314;2023-02-22T01:18:34;95049.78;;;11.20;42.74
70127;BME280;57491;42.694;23.314;2023-02-22T01:21:03;95046.19;;;11.21;42.35
70127;BME280;57491;42.694;23.314;2023-02-22T01:23:30;95039.97;;;11.22;42.12
70127;BME280;57491;42.694;23.314;2023-02-22T01:25:57;95043.22;;;11.24;42.77
70127;BME280;57491;42.694;23.314;2023-02-22T01:28:24;95041.44;;;11.25;41.25
70127;BME280;57491;42.694;23.314;2023-02-22T01:30:51;95048.25;;;11.26;43.01
70127;BME280;57491;42.694;23.314;2023-02-22T01:33:20;95040.44;;;11.26;43.44
70127;BME280;57491;42.694;23.314;2023-02-22T01:35:49;95039.97;;;11.22;41.84
70127;BME280;57491;42.694;23.314;2023-02-22T01:38:17;95044.84;;;11.25;42.62
70127;BME280;57491;42.694;23.314;2023-02-22T01:40:47;95047.22;;;11.27;43.30
70127;BME280;57491;42.694;23.314;2023-02-22T01:43:19;95036.69;;;11.13;42.88
70127;BME280;57491;42.694;23.314;2023-02-22T01:45:53;95045.47;;;11.12;43.17
70127;BME280;57491;42.694;23.314;2023-02-22T01:48:27;95044.97;;;11.02;43.11
70127;BME280;57491;42.694;23.314;2023-02-22T01:50:58;95044.72;;;10.97;43.29
70127;BME280;57491;42.694;23.314;2023-02-22T01:53:29;95043.19;;;10.88;43.34
70127;BME280;57491;42.694;23.314;2023-02-22T01:55:57;95050.09;;;10.81;42.38
70127;BME280;57491;42.694;23.314;2023-02-22T01:58:27;95045.34;;;10.70;43.06
70127;BME280;57491;42.694;23.314;2023-02-22T02:00:56;95047.31;;;10.68;44.06
70127;BME280;57491;42.694;23.314;2023-02-22T02:03:25;95042.50;;;10.65;44.14
70127;BME280;57491;42.694;23.314;2023-02-22T02:05:57;95038.25;;;10.49;46.13
70127;BME280;57491;42.694;23.314;2023-02-22T02:08:32;95042.16;;;10.53;44.93
70127;BME280;57491;42.694;23.314;2023-02-22T02:11:02;95047.50;;;10.52;44.33
70127;BME280;57491;42.694;23.314;2023-02-22T02:13:29;95048.84;;;10.48;43.64
70127;BME280;57491;42.694;23.314;2023-02-22T02:15:57;95051.78;;;10.45;45.29
70127;BME280;57491;42.694;23.314;2023-02-22T02:18:26;95052.59;;;10.31;44.10
70127;BME280;57491;42.694;23.314;2023-02-22T02:24:05;95049.63;;;10.19;44.12
70127;BME280;57491;42.694;23.314;2023-02-22T02:27:01;95055.31;;;10.14;44.35
70127;BME280;57491;42.694;23.314;2023-02-22T02:30:03;95060.88;;;10.11;45.21
70127;BME280;57491;42.694;23.314;2023-02-22T02:32:50;95062.91;;;10.01;45.31
70127;BME280;57491;42.694;23.314;2023-02-22T02:35:25;95059.41;;;9.94;45.05
70127;BME280;57491;42.694;23.314;2023-02-22T02:37:57;95064.59;;;9.94;44.56
70127;BME280;57491;42.694;23.314;2023-02-22T02:40:32;95064.31;;;9.89;44.71
70127;BME280;57491;42.694;23.314;2023-02-22T02:43:06;95060.44;;;9.85;44.97
70127;BME280;57491;42.694;23.314;2023-02-22T02:45:43;95062.06;;;9.86;45.17
70127;BME280;57491;42.694;23.314;2023-02-22T02:48:14;95064.66;;;9.86;46.21
70127;BME280;57491;42.694;23.314;2023-02-22T02:50:45;95065.66;;;9.85;45.73
70127;BME280;57491;42.694;23.314;2023-02-22T02:53:17;95071.16;;;9.82;45.05
70127;BME280;57491;42.694;23.314;2023-02-22T02:55:47;95060.97;;;9.80;44.72
70127;BME280;57491;42.694;23.314;2023-02-22T02:58:17;95062.63;;;9.73;44.00
70127;BME280;57491;42.694;23.314;2023-02-22T03:00:44;95062.09;;;9.78;44.59
70127;BME280;57491;42.694;23.314;2023-02-22T03:03:36;95072.69;;;9.76;45.95
70127;BME280;57491;42.694;23.314;2023-02-22T03:06:24;95071.75;;;9.69;45.01
70127;BME280;57491;42.694;23.314;2023-02-22T03:09:06;95078.41;;;9.72;46.31
70127;BME280;57491;42.694;23.314;2023-02-22T03:11:44;95076.94;;;9.69;44.47
70127;BME280;57491;42.694;23.314;2023-02-22T03:14:17;95078.28;;;9.65;45.32
70127;BME280;57491;42.694;23.314;2023-02-22T03:16:51;95070.53;;;9.57;45.29
70127;BME280;57491;42.694;23.314;2023-02-22T03:19:26;95070.53;;;9.57;47.13
70127;BME280;57491;42.694;23.314;2023-02-22T03:21:56;95065.88;;;9.53;46.40
70127;BME280;57491;42.694;23.314;2023-02-22T03:24:30;95067.50;;;9.54;45.76
70127;BME280;57491;42.694;23.314;2023-02-22T03:27:03;95070.38;;;9.59;46.12
70127;BME280;57491;42.694;23.314;2023-02-22T03:29:36;95067.50;;;9.54;44.23
70127;BME280;57491;42.694;23.314;2023-02-22T03:32:07;95066.09;;;9.43;46.24
70127;BME280;57491;42.694;23.314;2023-02-22T03:34:40;95071.22;;;9.51;46.38
70127;BME280;57491;42.694;23.314;2023-02-22T03:37:13;95068.47;;;9.53;46.58
70127;BME280;57491;42.694;23.314;2023-02-22T03:39:43;95067.94;;;9.57;47.79
70127;BME280;57491;42.694;23.314;2023-02-22T03:42:14;95071.66;;;9.63;47.53
70127;BME280;57491;42.694;23.314;2023-02-22T03:44:44;95064.94;;;9.68;47.01
70127;BME280;57491;42.694;23.314;2023-02-22T03:47:16;95073.22;;;9.72;47.57
70127;BME280;57491;42.694;23.314;2023-02-22T03:49:48;95071.88;;;9.76;47.11
70127;BME280;57491;42.694;23.314;2023-02-22T03:52:17;95071.81;;;9.84;47.22
70127;BME280;57491;42.694;23.314;2023-02-22T03:54:44;95070.19;;;9.83;46.70
70127;BME280;57491;42.694;23.314;2023-02-22T03:57:17;95062.41;;;9.83;47.84
70127;BME280;57491;42.694;23.314;2023-02-22T03:59:47;95067.25;;;9.86;47.62
70127;BME280;57491;42.694;23.314;2023-02-22T04:02:14;95062.84;;;9.86;47.90
70127;BME280;57491;42.694;23.314;2023-02-22T04:04:43;95067.59;;;9.83;47.78
70127;BME280;57491;42.694;23.314;2023-02-22T04:07:12;95065.28;;;9.88;47.82
70127;BME280;57491;42.694;23.314;2023-02-22T04:09:39;95069.88;;;9.86;48.46
70127;BME280;57491;42.694;23.314;2023-02-22T04:12:06;95073.59;;;9.83;46.11
70127;BME280;57491;42.694;23.314;2023-02-22T04:14:34;95063.72;;;9.79;47.60
70127;BME280;57491;42.694;23.314;2023-02-22T04:17:01;95065.97;;;9.82;46.41
70127;BME280;57491;42.694;23.314;2023-02-22T04:19:28;95076.09;;;9.77;47.83
70127;BME280;57491;42.694;23.314;2023-02-22T04:21:55;95072.19;;;9.73;48.20
70127;BME280;57491;42.694;23.314;2023-02-22T04:24:23;95070.94;;;9.69;47.69
70127;BME280;57491;42.694;23.314;2023-02-22T04:26:50;95078.09;;;9.67;48.86
70127;BME280;57491;42.694;23.314;2023-02-22T04:29:17;95079.72;;;9.68;46.49
70127;BME280;57491;42.694;23.314;2023-02-22T04:31:44;95076.47;;;9.66;47.41
70127;BME280;57491;42.694;23.314;2023-02-22T04:34:12;95076.84;;;9.63;46.93
70127;BME280;57491;42.694;23.314;2023-02-22T04:36:39;95079.59;;;9.61;47.57
70127;BME280;57491;42.694;23.314;2023-02-22T04:39:09;95081.91;;;9.56;47.68
70127;BME280;57491;42.694;23.314;2023-02-22T04:41:37;95077.03;;;9.30;46.75
70127;BME280;57491;42.694;23.314;2023-02-22T04:44:04;95077.84;;;9.31;48.05
70127;BME280;57491;42.694;23.314;2023-02-22T04:46:31;95080.31;;;9.24;48.10
70127;BME280;57491;42.694;23.314;2023-02-22T04:48:58;95079.84;;;9.21;47.53
70127;BME280;57491;42.694;23.314;2023-02-22T04:51:26;95086.66;;;9.22;48.30
70127;BME280;57491;42.694;23.314;2023-02-22T04:53:53;95084.88;;;9.22;49.27
70127;BME280;57491;42.694;23.314;2023-02-22T04:56:20;95075.84;;;9.10;47.90
70127;BME280;57491;42.694;23.314;2023-02-22T04:58:49;95073.78;;;8.98;48.43
70127;BME280;57491;42.694;23.314;2023-02-22T05:01:16;95083.81;;;9.01;49.05
70127;BME280;57491;42.694;23.314;2023-02-22T05:03:43;95084.00;;;8.99;49.15
70127;BME280;57491;42.694;23.314;2023-02-22T05:06:10;95088.88;;;8.94;48.54
70127;BME280;57491;42.694;23.314;2023-02-22T05:08:38;95085.00;;;8.90;48.42
70127;BME280;57491;42.694;23.314;2023-02-22T05:11:05;95096.50;;;8.87;48.52
70127;BME280;57491;42.694;23.314;2023-02-22T05:13:32;95084.06;;;8.83;47.87
70127;BME280;57491;42.694;23.314;2023-02-22T05:16:00;95090.84;;;8.84;48.49
70127;BME280;57491;42.694;23.314;2023-02-22T05:18:28;95087.50;;;8.75;49.29
70127;BME280;57491;42.694;23.314;2023-02-22T05:20:55;95097.00;;;8.83;48.51
70127;BME280;57491;42.694;23.314;2023-02-22T05:23:22;95096.53;;;8.79;50.24
70127;BME280;57491;42.694;23.314;2023-02-22T05:25:49;95096.56;;;8.71;48.32
70127;BME280;57491;42.694;23.314;2023-02-22T05:28:16;95102.69;;;8.78;48.44
70127;BME280;57491;42.694;23.314;2023-02-22T05:30:44;95113.56;;;8.74;49.54
70127;BME280;57491;42.694;23.314;2023-02-22T05:33:13;95119.75;;;8.73;49.48
70127;BME280;57491;42.694;23.314;2023-02-22T05:35:40;95117.63;;;8.76;49.81
70127;BME280;57491;42.694;23.314;2023-02-22T05:38:07;95116.78;;;8.84;49.46
70127;BME280;57491;42.694;23.314;2023-02-22T05:40:34;95126.53;;;8.82;47.36
70127;BME280;57491;42.694;23.314;2023-02-22T05:43:01;95120.19;;;8.84;47.70
70127;BME280;57491;42.694;23.314;2023-02-22T05:45:28;95127.31;;;8.90;47.45
70127;BME280;57491;42.694;23.314;2023-02-22T05:47:56;95121.63;;;8.95;47.71
70127;BME280;57491;42.694;23.314;2023-02-22T05:50:25;95130.34;;;9.02;47.74
70127;BME280;57491;42.694;23.314;2023-02-22T05:52:52;95129.97;;;9.13;47.85
70127;BME280;57491;42.694;23.314;2023-02-22T05:55:21;95134.31;;;9.21;47.01
70127;BME280;57491;42.694;23.314;2023-02-22T05:57:49;95133.66;;;9.27;46.90
70127;BME280;57491;42.694;23.314;2023-02-22T06:00:18;95112.41;;;9.23;46.40
70127;BME280;57491;42.694;23.314;2023-02-22T06:02:53;95136.31;;;9.41;45.21
70127;BME280;57491;42.694;23.314;2023-02-22T06:05:20;95138.53;;;9.53;45.85
70127;BME280;57491;42.694;23.314;2023-02-22T06:07:48;95143.47;;;9.70;46.60
70127;BME280;57491;42.694;23.314;2023-02-22T06:10:16;95146.75;;;9.87;46.11
70127;BME280;57491;42.694;23.314;2023-02-22T06:12:43;95143.19;;;10.11;45.10
70127;BME280;57491;42.694;23.314;2023-02-22T06:15:10;95135.41;;;10.34;45.29
70127;BME280;57491;42.694;23.314;2023-02-22T06:17:37;95138.00;;;10.34;44.35
70127;BME280;57491;42.694;23.314;2023-02-22T06:20:08;95133.16;;;10.31;44.13
70127;BME280;57491;42.694;23.314;2023-02-22T06:22:36;95140.22;;;10.22;43.95
70127;BME280;57491;42.694;23.314;2023-02-22T06:25:07;95135.66;;;10.24;44.55
70127;BME280;57491;42.694;23.314;2023-02-22T06:27:35;95139.03;;;10.47;44.26
70127;BME280;57491;42.694;23.314;2023-02-22T06:30:03;95131.78;;;10.72;43.37
70127;BME280;57491;42.694;23.314;2023-02-22T06:32:30;95140.41;;;11.02;43.95
70127;BME280;57491;42.694;23.314;2023-02-22T06:34:58;95142.28;;;11.23;42.65
70127;BME280;57491;42.694;23.314;2023-02-22T06:37:25;95132.47;;;11.39;40.82
70127;BME280;57491;42.694;23.314;2023-02-22T06:39:52;95141.75;;;11.63;42.07
70127;BME280;57491;42.694;23.314;2023-02-22T06:42:20;95146.84;;;11.86;40.87
70127;BME280;57491;42.694;23.314;2023-02-22T06:44:47;95145.53;;;12.11;41.27
70127;BME280;57491;42.694;23.314;2023-02-22T06:47:14;95139.34;;;12.40;40.04
70127;BME280;57491;42.694;23.314;2023-02-22T06:49:41;95144.75;;;12.66;38.68
70127;BME280;57491;42.694;23.314;2023-02-22T06:52:09;95142.56;;;12.97;38.06
70127;BME280;57491;42.694;23.314;2023-02-22T06:54:36;95141.72;;;13.18;38.23
70127;BME280;57491;42.694;23.314;2023-02-22T06:57:03;95141.25;;;13.49;37.26
70127;BME280;57491;42.694;23.314;2023-02-22T06:59:31;95144.72;;;13.69;35.48
70127;BME280;57491;42.694;23.314;2023-02-22T07:01:58;95131.69;;;13.82;35.27
70127;BME280;57491;42.694;23.314;2023-02-22T07:04:25;95139.19;;;13.99;34.34
70127;BME280;57491;42.694;23.314;2023-02-22T07:06:52;95140.03;;;14.19;35.30
70127;BME280;57491;42.694;23.314;2023-02-22T07:09:19;95144.72;;;14.43;34.38
70127;BME280;57491;42.694;23.314;2023-02-22T07:11:46;95135.84;;;14.31;33.80
70127;BME280;57491;42.694;23.314;2023-02-22T07:14:15;95134.22;;;14.30;35.04
70127;BME280;57491;42.694;23.314;2023-02-22T07:16:43;95128.22;;;14.49;33.14
70127;BME280;57491;42.694;23.314;2023-02-22T07:19:10;95140.28;;;14.90;32.94
70127;BME280;57491;42.694;23.314;2023-02-22T07:21:37;95135.56;;;15.18;32.27
70127;BME280;57491;42.694;23.314;2023-02-22T07:24:05;95130.13;;;15.13;31.70
70127;BME280;57491;42.694;23.314;2023-02-22T07:26:37;95144.38;;;15.43;31.52
70127;BME280;57491;42.694;23.314;2023-02-22T07:29:05;95133.91;;;15.43;31.57
70127;BME280;57491;42.694;23.314;2023-02-22T07:31:34;95130.53;;;15.81;31.06
70127;BME280;57491;42.694;23.314;2023-02-22T07:34:02;95134.66;;;16.01;30.78
70127;BME280;57491;42.694;23.314;2023-02-22T07:36:29;95136.94;;;16.23;30.15
70127;BME280;57491;42.694;23.314;2023-02-22T07:38:56;95125.72;;;16.09;29.93
70127;BME280;57491;42.694;23.314;2023-02-22T07:41:24;95129.88;;;16.23;30.44
70127;BME280;57491;42.694;23.314;2023-02-22T07:43:51;95127.16;;;16.36;29.61
70127;BME280;57491;42.694;23.314;2023-02-22T07:46:18;95131.13;;;16.45;29.62
70127;BME280;57491;42.694;23.314;2023-02-22T07:48:45;95129.94;;;16.73;29.44
70127;BME280;57491;42.694;23.314;2023-02-22T07:51:15;95127.16;;;16.92;28.72
70127;BME280;57491;42.694;23.314;2023-02-22T07:53:42;95125.69;;;16.97;28.78
70127;BME280;57491;42.694;23.314;2023-02-22T07:56:09;95122.66;;;17.36;28.90
70127;BME280;57491;42.694;23.314;2023-02-22T07:58:37;95129.13;;;17.88;27.74
70127;BME280;57491;42.694;23.314;2023-02-22T08:01:04;95112.25;;;17.96;26.99
70127;BME280;57491;42.694;23.314;2023-02-22T08:03:33;95123.56;;;17.96;27.66
70127;BME280;57491;42.694;23.314;2023-02-22T08:06:01;95118.69;;;18.11;28.11
70127;BME280;57491;42.694;23.314;2023-02-22T08:08:30;95118.88;;;18.40;26.83
70127;BME280;57491;42.694;23.314;2023-02-22T08:10:57;95125.34;;;18.55;26.53
70127;BME280;57491;42.694;23.314;2023-02-22T08:13:24;95118.38;;;18.84;26.05
70127;BME280;57491;42.694;23.314;2023-02-22T08:15:52;95113.09;;;19.31;26.31
70127;BME280;57491;42.694;23.314;2023-02-22T08:18:20;95110.50;;;19.71;24.95
70127;BME280;57491;42.694;23.314;2023-02-22T08:20:49;95112.44;;;19.75;24.80
70127;BME280;57491;42.694;23.314;2023-02-22T08:23:18;95110.28;;;20.00;25.15
70127;BME280;57491;42.694;23.314;2023-02-22T08:25:47;95110.00;;;20.42;24.74
70127;BME280;57491;42.694;23.314;2023-02-22T08:28:15;95116.22;;;20.86;24.13
70127;BME280;57491;42.694;23.314;2023-02-22T08:30:44;95112.59;;;21.25;23.39
70127;BME280;57491;42.694;23.314;2023-02-22T08:33:13;95102.06;;;21.69;23.27
70127;BME280;57491;42.694;23.314;2023-02-22T08:35:44;95098.03;;;22.10;22.53
70127;BME280;57491;42.694;23.314;2023-02-22T08:38:17;95100.34;;;22.28;22.19
70127;BME280;57491;42.694;23.314;2023-02-22T08:40:48;95098.31;;;22.40;22.24
70127;BME280;57491;42.694;23.314;2023-02-22T08:43:16;95103.97;;;22.81;21.90
70127;BME280;57491;42.694;23.314;2023-02-22T08:45:44;95096.72;;;23.03;21.28
70127;BME280;57491;42.694;23.314;2023-02-22T08:48:12;95089.91;;;23.17;20.92
70127;BME280;57491;42.694;23.314;2023-02-22T08:50:39;95090.03;;;23.42;21.12
70127;BME280;57491;42.694;23.314;2023-02-22T08:53:10;95099.00;;;23.88;20.58
70127;BME280;57491;42.694;23.314;2023-02-22T08:55:39;95095.66;;;24.23;20.02
70127;BME280;57491;42.694;23.314;2023-02-22T08:58:08;95091.19;;;24.54;19.88
70127;BME280;57491;42.694;23.314;2023-02-22T09:00:36;95088.28;;;24.40;19.92
70127;BME280;57491;42.694;23.314;2023-02-22T09:03:05;95094.06;;;24.27;20.38
70127;BME280;57491;42.694;23.314;2023-02-22T09:05:33;95086.94;;;24.43;20.21
70127;BME280;57491;42.694;23.314;2023-02-22T09:08:00;95094.09;;;24.32;20.24
70127;BME280;57491;42.694;23.314;2023-02-22T09:10:28;95088.81;;;24.53;20.53
70127;BME280;57491;42.694;23.314;2023-02-22T09:12:55;95086.97;;;24.58;20.43
70127;BME280;57491;42.694;23.314;2023-02-22T09:15:27;95074.97;;;24.66;20.51
70127;BME280;57491;42.694;23.314;2023-02-22T09:17:54;95070.97;;;25.04;20.32
70127;BME280;57491;42.694;23.314;2023-02-22T09:20:22;95079.66;;;25.45;20.10
70127;BME280;57491;42.694;23.314;2023-02-22T09:22:50;95074.53;;;25.68;20.06
70127;BME280;57491;42.694;23.314;2023-02-22T09:25:20;95076.59;;;25.82;19.37
70127;BME280;57491;42.694;23.314;2023-02-22T09:27:48;95073.97;;;25.76;19.09
70127;BME280;57491;42.694;23.314;2023-02-22T09:30:18;95071.88;;;25.68;19.23
70127;BME280;57491;42.694;23.314;2023-02-22T09:32:50;95075.78;;;25.86;19.70
70127;BME280;57491;42.694;23.314;2023-02-22T09:35:18;95057.97;;;26.31;19.41
70127;BME280;57491;42.694;23.314;2023-02-22T09:37:45;95070.78;;;26.62;18.24
70127;BME280;57491;42.694;23.314;2023-02-22T09:40:16;95065.25;;;26.54;18.44
70127;BME280;57491;42.694;23.314;2023-02-22T09:43:01;95067.88;;;26.59;18.98
70127;BME280;57491;42.694;23.314;2023-02-22T09:45:33;95064.78;;;26.47;18.44
70127;BME280;57491;42.694;23.314;2023-02-22T09:48:06;95057.94;;;26.36;18.13
70127;BME280;57491;42.694;23.314;2023-02-22T09:50:36;95062.47;;;26.35;18.91
70127;BME280;57491;42.694;23.314;2023-02-22T09:53:06;95057.22;;;26.93;18.29
70127;BME280;57491;42.694;23.314;2023-02-22T09:55:42;95056.81;;;27.10;17.79
70127;BME280;57491;42.694;23.314;2023-02-22T09:58:16;95059.50;;;27.04;18.41
70127;BME280;57491;42.694;23.314;2023-02-22T10:00:47;95050.94;;;27.07;17.55
70127;BME280;57491;42.694;23.314;2023-02-22T10:03:24;95048.19;;;26.84;17.85
70127;BME280;57491;42.694;23.314;2023-02-22T10:05:58;95043.31;;;26.62;18.39
70127;BME280;57491;42.694;23.314;2023-02-22T10:08:29;95040.00;;;26.46;18.05
70127;BME280;57491;42.694;23.314;2023-02-22T10:11:07;95040.06;;;26.70;18.16
70127;BME280;57491;42.694;23.314;2023-02-22T10:13:45;95038.66;;;26.78;18.22
70127;BME280;57491;42.694;23.314;2023-02-22T10:16:20;95027.09;;;26.92;17.60
70127;BME280;57491;42.694;23.314;2023-02-22T10:19:09;95023.63;;;27.16;17.64
70127;BME280;57491;42.694;23.314;2023-02-22T10:21:55;95021.28;;;27.80;17.05
70127;BME280;57491;42.694;23.314;2023-02-22T10:24:35;95013.00;;;28.01;16.53
70127;BME280;57491;42.694;23.314;2023-02-22T10:27:08;95012.88;;;28.06;17.06
70127;BME280;57491;42.694;23.314;2023-02-22T10:29:41;95010.56;;;29.01;16.39
70127;BME280;57491;42.694;23.314;2023-02-22T10:32:14;94999.91;;;29.56;16.04
70127;BME280;57491;42.694;23.314;2023-02-22T10:34:46;94989.50;;;30.26;15.39
70127;BME280;57491;42.694;23.314;2023-02-22T10:37:22;94986.81;;;30.93;14.69
70127;BME280;57491;42.694;23.314;2023-02-22T10:39:56;94983.66;;;31.30;14.11
70127;BME280;57491;42.694;23.314;2023-02-22T10:42:25;94976.19;;;31.67;14.07
70127;BME280;57491;42.694;23.314;2023-02-22T10:44:53;94980.19;;;32.04;13.58
70127;BME280;57491;42.694;23.314;2023-02-22T10:47:20;94978.00;;;32.31;13.93
70127;BME280;57491;42.694;23.314;2023-02-22T10:49:52;94975.91;;;32.63;12.97
70127;BME280;57491;42.694;23.314;2023-02-22T10:52:25;94976.03;;;32.75;12.95
70127;BME280;57491;42.694;23.314;2023-02-22T10:54:55;94963.53;;;32.79;12.82
70127;BME280;57491;42.694;23.314;2023-02-22T10:57:26;94959.06;;;32.92;12.97
70127;BME280;57491;42.694;23.314;2023-02-22T10:59:54;94958.19;;;33.76;12.60
70127;BME280;57491;42.694;23.314;2023-02-22T11:02:26;94959.78;;;33.97;12.44
70127;BME280;57491;42.694;23.314;2023-02-22T11:04:58;94950.94;;;34.50;11.65
70127;BME280;57491;42.694;23.314;2023-02-22T11:07:28;94943.22;;;34.08;11.34
70127;BME280;57491;42.694;23.314;2023-02-22T11:09:57;94951.22;;;33.75;12.28
70127;BME280;57491;42.694;23.314;2023-02-22T11:12:31;94941.69;;;34.19;12.16
70127;BME280;57491;42.694;23.314;2023-02-22T11:15:25;94946.63;;;34.70;11.84
70127;BME280;57491;42.694;23.314;2023-02-22T11:17:54;94930.94;;;35.45;11.75
70127;BME280;57491;42.694;23.314;2023-02-22T11:20:25;94932.41;;;35.67;11.09
70127;BME280;57491;42.694;23.314;2023-02-22T11:22:54;94923.41;;;36.03;10.75
70127;BME280;57491;42.694;23.314;2023-02-22T11:25:26;94916.06;;;36.87;10.20
70127;BME280;57491;42.694;23.314;2023-02-22T11:27:53;94925.81;;;36.32;9.59
70127;BME280;57491;42.694;23.314;2023-02-22T11:30:28;94920.25;;;35.36;10.94
70127;BME280;57491;42.694;23.314;2023-02-22T11:32:58;94918.91;;;35.95;10.71
70127;BME280;57491;42.694;23.314;2023-02-22T11:35:37;94918.13;;;36.34;10.03
70127;BME280;57491;42.694;23.314;2023-02-22T11:38:15;94913.84;;;37.39;10.14
70127;BME280;57491;42.694;23.314;2023-02-22T11:40:44;94907.44;;;37.98;9.58
70127;BME280;57491;42.694;23.314;2023-02-22T11:43:15;94901.19;;;38.55;8.93
70127;BME280;57491;42.694;23.314;2023-02-22T11:45:58;94895.19;;;39.34;8.21
70127;BME280;57491;42.694;23.314;2023-02-22T11:48:28;94904.38;;;39.78;7.67
70127;BME280;57491;42.694;23.314;2023-02-22T11:51:08;94904.06;;;39.83;8.21
70127;BME280;57491;42.694;23.314;2023-02-22T11:56:51;94899.97;;;38.95;8.59
70127;BME280;57491;42.694;23.314;2023-02-22T11:59:29;94887.72;;;38.20;8.58
70127;BME280;57491;42.694;23.314;2023-02-22T12:02:04;94882.94;;;39.47;7.83
70127;BME280;57491;42.694;23.314;2023-02-22T12:04:54;94888.00;;;39.22;8.41
70127;BME280;57491;42.694;23.314;2023-02-22T12:07:39;94886.38;;;39.17;7.75
70127;BME280;57491;42.694;23.314;2023-02-22T12:10:22;94881.94;;;39.32;7.85
70127;BME280;57491;42.694;23.314;2023-02-22T12:13:04;94878.13;;;39.37;7.48
70127;BME280;57491;42.694;23.314;2023-02-22T12:15:44;94880.19;;;40.33;7.88
70127;BME280;57491;42.694;23.314;2023-02-22T12:18:20;94874.97;;;40.98;6.96
70127;BME280;57491;42.694;23.314;2023-02-22T12:20:52;94873.53;;;40.67;7.30
70127;BME280;57491;42.694;23.314;2023-02-22T12:23:25;94871.47;;;39.90;7.38
70127;BME280;57491;42.694;23.314;2023-02-22T12:25:59;94871.09;;;40.58;7.19
70127;BME280;57491;42.694;23.314;2023-02-22T12:28:32;94867.25;;;41.58;6.64
70127;BME280;57491;42.694;23.314;2023-02-22T12:31:07;94863.47;;;41.80;6.30
70127;BME280;57491;42.694;23.314;2023-02-22T12:33:46;94866.53;;;41.68;6.79
70127;BME280;57491;42.694;23.314;2023-02-22T12:36:19;94861.00;;;42.37;6.36
70127;BME280;57491;42.694;23.314;2023-02-22T12:38:53;94856.78;;;42.93;5.89
70127;BME280;57491;42.694;23.314;2023-02-22T12:41:28;94854.38;;;42.56;6.06
70127;BME280;57491;42.694;23.314;2023-02-22T12:44:01;94845.50;;;41.72;6.40
70127;BME280;57491;42.694;23.314;2023-02-22T12:46:32;94858.84;;;41.84;6.45
70127;BME280;57491;42.694;23.314;2023-02-22T12:49:09;94853.69;;;42.77;5.98
70127;BME280;57491;42.694;23.314;2023-02-22T12:51:43;94846.28;;;43.09;5.93
70127;BME280;57491;42.694;23.314;2023-02-22T12:54:20;94848.81;;;42.13;6.24
70127;BME280;57491;42.694;23.314;2023-02-22T12:56:52;94844.94;;;40.94;6.55
70127;BME280;57491;42.694;23.314;2023-02-22T12:59:24;94843.41;;;40.53;6.72
70127;BME280;57491;42.694;23.314;2023-02-22T13:01:55;94843.19;;;40.69;6.65
70127;BME280;57491;42.694;23.314;2023-02-22T13:04:24;94839.47;;;40.47;6.78
70127;BME280;57491;42.694;23.314;2023-02-22T13:07:00;94824.22;;;41.34;6.84
70127;BME280;57491;42.694;23.314;2023-02-22T13:09:52;94834.78;;;42.22;6.57
70127;BME280;57491;42.694;23.314;2023-02-22T13:12:31;94831.03;;;42.87;6.04
70127;BME280;57491;42.694;23.314;2023-02-22T13:15:07;94835.25;;;42.42;5.80
70127;BME280;57491;42.694;23.314;2023-02-22T13:17:41;94832.56;;;42.84;5.95
70127;BME280;57491;42.694;23.314;2023-02-22T13:20:16;94825.09;;;41.45;6.57